M I D A S
Marine Information and Data Acquisition System
Tripno 2019 of the Zeeleeuw from 2010-12-15 08:02:08 to 2010-12-15 14:16:02
Back to CruiseResearch ActivitiesStationsMapUnderway DataData graphs

EquipmentUnitsComment
TimeDGPSUTC
LatitudeDGPSDM.mWGS84
LongitudeDGPSDM.mWGS84
HeadingGyrodeg 
SOGDGPSknotsSpeed over ground
COGDGPSdegCourse over ground
DepthEcho soundermeters200 kHz
Missing or incorrect values are displayed as -999
Navigation data collected by the RV Zeeleeuw from 2010-12-15 07:52:59 to 2010-12-15 14:27:43
                                                                                    Next 1000 lines
Time Latitude Longitude Heading SOG COG Depth
2010-12-15 07:53:09 51°13.662 2°55.957 108 0.8 292 9.8
2010-12-15 07:53:15 51°13.662 2°55.953 107.5 1.2 293 9.8
2010-12-15 07:53:19 51°13.663 2°55.951 107.1 1.6 292 9.6
2010-12-15 07:53:23 51°13.664 2°55.947 106.8 2.1 293 9.5
2010-12-15 07:53:29 51°13.666 2°55.941 106.9 2.6 291 -999
2010-12-15 07:53:35 51°13.668 2°55.934 107.2 3 293 -999
2010-12-15 07:53:40 51°13.67 2°55.927 107.4 3.5 291 -999
2010-12-15 07:53:46 51°13.672 2°55.917 107.4 3.9 291 -999
2010-12-15 07:53:52 51°13.674 2°55.907 107.5 4 291 -999
2010-12-15 07:53:58 51°13.677 2°55.897 107.5 4.1 289 -999
2010-12-15 07:54:03 51°13.678 2°55.888 107.5 4.1 289 -999
2010-12-15 07:54:07 51°13.68 2°55.882 107.5 4.1 288 -999
2010-12-15 07:54:13 51°13.682 2°55.871 107.5 4.1 287 -999
2010-12-15 07:54:18 51°13.684 2°55.863 107.8 4.1 287 -999
2010-12-15 07:54:23 51°13.685 2°55.854 108.7 4.1 287 -999
2010-12-15 07:54:28 51°13.687 2°55.845 109.7 4.1 288 -999
2010-12-15 07:54:33 51°13.689 2°55.837 111.3 4.2 290 -999
2010-12-15 07:54:38 51°13.691 2°55.828 114.2 4.3 294 -999
2010-12-15 07:54:43 51°13.694 2°55.819 117.6 4.4 296 -999
2010-12-15 07:54:48 51°13.697 2°55.81 120.1 4.5 299 -999
2010-12-15 07:54:53 51°13.701 2°55.802 122.9 4.7 303 -999
2010-12-15 07:54:58 51°13.704 2°55.793 125.4 4.8 304 -999
2010-12-15 07:55:03 51°13.709 2°55.784 127.3 4.9 306 -999
2010-12-15 07:55:08 51°13.713 2°55.775 128.3 5 307 -999
2010-12-15 07:55:13 51°13.717 2°55.766 129.3 5.1 309 -999
2010-12-15 07:55:18 51°13.722 2°55.757 130.7 5.2 309 -999
2010-12-15 07:55:23 51°13.727 2°55.748 132.3 5.3 311 -999
2010-12-15 07:55:28 51°13.732 2°55.74 134.2 5.4 313 -999
2010-12-15 07:55:33 51°13.737 2°55.731 136 5.4 314 -999
2010-12-15 07:55:38 51°13.742 2°55.723 137.7 5.4 316 -999
2010-12-15 07:55:43 51°13.748 2°55.715 139.3 5.4 317 -999
2010-12-15 07:55:47 51°13.752 2°55.709 140.9 5.4 319 -999
2010-12-15 07:55:53 51°13.759 2°55.7 142.8 5.4 321 -999
2010-12-15 07:55:58 51°13.765 2°55.693 144.8 5.4 324 -999
2010-12-15 07:56:03 51°13.772 2°55.687 146.9 5.4 326 -999
2010-12-15 07:56:07 51°13.777 2°55.682 149.1 5.4 329 -999
2010-12-15 07:56:13 51°13.784 2°55.675 151.4 5.4 331 -999
2010-12-15 07:56:18 51°13.79 2°55.669 153.8 5.4 333 -999
2010-12-15 07:56:23 51°13.797 2°55.664 155 5.3 335 -999
2010-12-15 07:56:27 51°13.802 2°55.661 156.6 5.3 337 -999
2010-12-15 07:56:33 51°13.811 2°55.655 157.8 5.2 338 -999
2010-12-15 07:56:38 51°13.818 2°55.651 158.9 5.2 340 -999
2010-12-15 07:56:43 51°13.824 2°55.648 159.8 5.2 340 -999
2010-12-15 07:56:48 51°13.831 2°55.644 160.1 5.2 341 -999
2010-12-15 07:56:53 51°13.838 2°55.641 160.3 5.2 341 -999
2010-12-15 07:56:58 51°13.845 2°55.637 160.4 5.3 342 -999
2010-12-15 07:57:03 51°13.852 2°55.634 160.7 4.4 341 -999
2010-12-15 07:57:08 51°13.859 2°55.63 161 5.4 342 -999
2010-12-15 07:57:13 51°13.866 2°55.626 161.6 5.4 343 -999
2010-12-15 07:57:18 51°13.873 2°55.623 162.8 5.2 345 -999
2010-12-15 07:57:23 51°13.88 2°55.62 164.4 4.9 345 -999
2010-12-15 07:57:28 51°13.886 2°55.618 165.9 4.7 346 -999
2010-12-15 07:57:33 51°13.892 2°55.616 167.5 4.4 347 -999
2010-12-15 07:57:38 51°13.898 2°55.614 169.2 4.2 349 -999
2010-12-15 07:57:43 51°13.903 2°55.613 171.3 4 350 -999
2010-12-15 07:57:48 51°13.908 2°55.612 173.4 3.8 353 -999
2010-12-15 07:57:53 51°13.913 2°55.611 175.7 3.5 354 -999
2010-12-15 07:57:58 51°13.918 2°55.611 178 3.3 358 -999
2010-12-15 07:58:03 51°13.922 2°55.611 180.1 3.1 359 -999
2010-12-15 07:58:08 51°13.926 2°55.612 183 2.9 3 -999
2010-12-15 07:58:12 51°13.929 2°55.612 185 2.8 6 4.7
2010-12-15 07:58:18 51°13.933 2°55.614 186.7 2.5 10 13.3
2010-12-15 07:58:22 51°13.935 2°55.614 188.4 2.5 11 4.9
2010-12-15 07:58:27 51°13.939 2°55.616 190.1 2.4 13 13.1
2010-12-15 07:58:32 51°13.942 2°55.617 191.5 2.2 16 13
2010-12-15 07:58:37 51°13.944 2°55.618 192.6 1.8 20 13.1
2010-12-15 07:58:42 51°13.946 2°55.619 194.1 1.4 23 13
2010-12-15 07:58:47 51°13.947 2°55.62 195.6 0.9 28 13.1
2010-12-15 07:58:51 51°13.947 2°55.621 197.6 0.3 64 13.1
2010-12-15 07:58:57 51°13.946 2°55.62 200.5 0.3 203 13.1
2010-12-15 07:59:02 51°13.944 2°55.62 204.4 1.1 195 13.1
2010-12-15 07:59:07 51°13.943 2°55.617 209.6 1.5 218 13.2
2010-12-15 07:59:11 51°13.941 2°55.615 214.9 1.8 216 13.2
2010-12-15 07:59:16 51°13.939 2°55.612 221.7 2 225 13.1
2010-12-15 07:59:21 51°13.937 2°55.608 229.8 2.1 230 13.1
2010-12-15 07:59:26 51°13.935 2°55.605 235.8 1.9 234 13.1
2010-12-15 07:59:31 51°13.934 2°55.602 239.8 1.6 238 13
2010-12-15 07:59:35 51°13.933 2°55.601 244 1.2 216 13.1
2010-12-15 07:59:40 51°13.933 2°55.601 245.9 0.6 213 13.1
2010-12-15 07:59:45 51°13.932 2°55.602 249.3 0.8 127 13.1
2010-12-15 07:59:50 51°13.932 2°55.605 251.5 1.2 97 13.1
2010-12-15 07:59:55 51°13.932 2°55.609 252.9 1.7 97 13.1
2010-12-15 07:59:59 51°13.932 2°55.613 253.4 2.2 90 13.1
2010-12-15 08:00:06 51°13.932 2°55.621 253.1 2.6 88 -999
2010-12-15 08:00:11 51°13.932 2°55.627 252.7 2.7 85 -999
2010-12-15 08:00:17 51°13.932 2°55.634 251.8 2.8 86 -999
2010-12-15 08:00:22 51°13.933 2°55.64 251.2 2.6 84 -999
2010-12-15 08:00:27 51°13.933 2°55.645 249.4 2.2 85 -999
2010-12-15 08:00:33 51°13.933 2°55.648 247.5 1.3 95 -999
2010-12-15 08:00:38 51°13.932 2°55.65 246.1 0.8 123 -999
2010-12-15 08:00:43 51°13.932 2°55.649 246.9 0.7 195 -999
2010-12-15 08:00:47 51°13.931 2°55.647 249.5 1.2 230 -999
2010-12-15 08:00:53 51°13.929 2°55.642 252.7 1.8 242 13.1
2010-12-15 08:00:58 51°13.928 2°55.637 256.8 2.3 251 13.4
2010-12-15 08:01:03 51°13.928 2°55.631 261.3 2.7 261 5.5
2010-12-15 08:01:08 51°13.928 2°55.624 267 3.1 268 -999
2010-12-15 08:01:12 51°13.928 2°55.618 274.7 3.4 277 -999
2010-12-15 08:01:18 51°13.93 2°55.608 282.8 3.7 285 -999
2010-12-15 08:01:23 51°13.932 2°55.6 290.2 4 292 -999
2010-12-15 08:01:27 51°13.935 2°55.594 297.5 4.1 301 -999
2010-12-15 08:01:32 51°13.938 2°55.587 303.7 4.1 309 5
2010-12-15 08:01:38 51°13.944 2°55.579 310 4.2 317 13.1
2010-12-15 08:01:43 51°13.949 2°55.573 317 4.4 322 13.1
2010-12-15 08:01:47 51°13.953 2°55.569 322.3 4.7 327 13.3
2010-12-15 08:01:52 51°13.959 2°55.563 326 5 330 13
2010-12-15 08:01:57 51°13.966 2°55.558 330.1 5.4 332 13
2010-12-15 08:02:02 51°13.973 2°55.552 331.8 5.8 333 13
2010-12-15 08:02:07 51°13.981 2°55.545 332.7 6.1 332 13
2010-12-15 08:02:11 51°13.987 2°55.54 332.4 6.5 333 13
2010-12-15 08:02:16 51°13.996 2°55.533 332 6.9 332 12.8
2010-12-15 08:02:21 51°14.005 2°55.526 331.5 7.2 332 13
2010-12-15 08:02:26 51°14.014 2°55.518 331.5 7.4 332 12.9
2010-12-15 08:02:31 51°14.023 2°55.51 331.6 7.6 332 12.8
2010-12-15 08:02:36 51°14.033 2°55.502 331.4 7.8 333 -999
2010-12-15 08:02:40 51°14.041 2°55.496 332.6 8.1 334 12.8
2010-12-15 08:02:46 51°14.053 2°55.487 334 8.2 335 -999
2010-12-15 08:02:51 51°14.064 2°55.478 333.5 8.4 333 12.8
2010-12-15 08:02:56 51°14.074 2°55.47 332.7 8.5 334 12.8
2010-12-15 08:03:01 51°14.085 2°55.461 332.6 8.6 333 12.7
2010-12-15 08:03:06 51°14.096 2°55.452 332.4 8.7 332 -999
2010-12-15 08:03:11 51°14.107 2°55.443 331.8 8.8 332 12.7
2010-12-15 08:03:16 51°14.118 2°55.434 331.2 8.8 331 12.7
2010-12-15 08:03:21 51°14.129 2°55.425 331.1 8.8 332 12.6
2010-12-15 08:03:26 51°14.139 2°55.415 331.5 8.9 332 -999
2010-12-15 08:03:31 51°14.15 2°55.406 331.2 8.9 331 -999
2010-12-15 08:03:38 51°14.166 2°55.392 330.5 9 330 -999
2010-12-15 08:03:43 51°14.176 2°55.382 329.7 9 329 -999
2010-12-15 08:03:47 51°14.185 2°55.374 328.7 9 329 12.6
2010-12-15 08:03:53 51°14.198 2°55.361 327.5 9.2 328 -999
2010-12-15 08:03:58 51°14.209 2°55.351 327.5 9.2 330 -999
2010-12-15 08:04:03 51°14.22 2°55.34 328.3 9.3 329 -999
2010-12-15 08:04:08 51°14.231 2°55.329 328.5 9.4 329 -999
2010-12-15 08:04:13 51°14.242 2°55.318 327.9 9.5 328 -999
2010-12-15 08:04:18 51°14.253 2°55.308 328.2 9.5 329 -999
2010-12-15 08:04:23 51°14.265 2°55.297 328.9 9.6 330 -999
2010-12-15 08:04:28 51°14.277 2°55.286 329 9.7 329 -999
2010-12-15 08:04:33 51°14.288 2°55.275 328.9 9.8 330 -999
2010-12-15 08:04:38 51°14.301 2°55.265 330.8 9.8 332 -999
2010-12-15 08:04:43 51°14.312 2°55.254 331 9.9 330 12.6
2010-12-15 08:04:47 51°14.322 2°55.246 331 9.9 332 12.5
2010-12-15 08:04:53 51°14.337 2°55.232 330.9 10.1 330 12.8
2010-12-15 08:04:58 51°14.349 2°55.221 330.2 10.2 331 -999
2010-12-15 08:05:03 51°14.362 2°55.21 330.5 10.3 331 -999
2010-12-15 08:05:07 51°14.371 2°55.2 330 10.4 329 12.8
2010-12-15 08:05:13 51°14.386 2°55.186 329.3 10.5 329 -999
2010-12-15 08:05:18 51°14.399 2°55.174 329 10.5 329 12.7
2010-12-15 08:05:23 51°14.411 2°55.161 328.9 10.6 328 12.8
2010-12-15 08:05:27 51°14.421 2°55.152 328.1 10.8 328 12.8
2010-12-15 08:05:32 51°14.434 2°55.139 328.1 10.7 329 12.9
2010-12-15 08:05:38 51°14.449 2°55.125 328.8 10.6 328 -999
2010-12-15 08:05:43 51°14.462 2°55.112 328.3 10.8 327 12.9
2010-12-15 08:05:47 51°14.472 2°55.101 327.5 11 327 12.8
2010-12-15 08:05:52 51°14.485 2°55.088 327.4 11.3 327 12.8
2010-12-15 08:05:57 51°14.499 2°55.074 327 11.4 326 13.6
2010-12-15 08:06:02 51°14.512 2°55.06 326.2 11.5 327 13.5
2010-12-15 08:06:07 51°14.525 2°55.046 326.1 11.5 326 13.2
2010-12-15 08:06:11 51°14.535 2°55.034 325.7 11.4 325 13.9
2010-12-15 08:06:16 51°14.549 2°55.02 324.5 11.6 327 12.9
2010-12-15 08:06:22 51°14.566 2°55.004 325 11.8 329 13.7
2010-12-15 08:06:27 51°14.581 2°54.99 326.7 12.1 330 13.3
2010-12-15 08:06:31 51°14.592 2°54.979 326.5 12.2 329 13.8
2010-12-15 08:06:36 51°14.607 2°54.966 325.8 12.2 329 13.6
2010-12-15 08:06:40 51°14.619 2°54.954 325.2 12.2 327 13.1
2010-12-15 08:06:46 51°14.636 2°54.937 323.8 12.4 326 14
2010-12-15 08:06:51 51°14.651 2°54.923 323.5 12.3 328 13.7
2010-12-15 08:06:55 51°14.662 2°54.91 324.1 12.5 327 13.7
2010-12-15 08:07:00 51°14.677 2°54.896 324.1 12.6 329 14
2010-12-15 08:07:05 51°14.692 2°54.882 324.9 12.6 329 13.1
2010-12-15 08:07:10 51°14.707 2°54.868 325.7 12.4 330 13.5
2010-12-15 08:07:15 51°14.722 2°54.854 326 12.5 330 13.6
2010-12-15 08:07:19 51°14.733 2°54.843 326.3 12.4 330 13.7
2010-12-15 08:07:24 51°14.748 2°54.828 325.6 12.5 327 14
2010-12-15 08:07:29 51°14.762 2°54.812 324.7 12.4 327 13.1
2010-12-15 08:07:35 51°14.78 2°54.795 323.3 12.5 326 13.5
2010-12-15 08:07:39 51°14.792 2°54.782 322.3 12.6 325 13.3
2010-12-15 08:07:43 51°14.803 2°54.77 321.9 12.6 327 13.7
2010-12-15 08:07:49 51°14.82 2°54.75 322.4 12.6 325 13.2
2010-12-15 08:07:54 51°14.834 2°54.734 321.3 12.6 325 13.1
2010-12-15 08:07:59 51°14.848 2°54.718 321 12.6 324 13.7
2010-12-15 08:08:03 51°14.859 2°54.704 319.3 12.4 322 14.1
2010-12-15 08:08:09 51°14.876 2°54.684 319.1 12.5 324 13.7
2010-12-15 08:08:14 51°14.89 2°54.668 319.9 12.6 325 14
2010-12-15 08:08:19 51°14.904 2°54.652 320.9 12.5 324 14
2010-12-15 08:08:24 51°14.918 2°54.636 320.2 12.6 325 13.7
2010-12-15 08:08:29 51°14.932 2°54.62 320.5 12.6 324 13.5
2010-12-15 08:08:34 51°14.947 2°54.604 319.8 12.6 324 12.7
2010-12-15 08:08:39 51°14.961 2°54.587 319.9 12.6 324 12.3
2010-12-15 08:08:44 51°14.975 2°54.571 319.8 12.6 324 12.4
2010-12-15 08:08:49 51°14.99 2°54.555 320.2 12.8 326 12.1
2010-12-15 08:08:54 51°15.005 2°54.539 320.9 12.8 325 12
2010-12-15 08:08:59 51°15.019 2°54.524 322 12.7 327 11.2
2010-12-15 08:09:04 51°15.033 2°54.508 321.2 12.4 325 12.1
2010-12-15 08:09:09 51°15.048 2°54.493 322.2 12.6 326 12
2010-12-15 08:09:14 51°15.062 2°54.477 322.2 12.6 326 11.6
2010-12-15 08:09:19 51°15.077 2°54.462 323 12.6 327 11.7
2010-12-15 08:09:24 51°15.091 2°54.446 323.1 12.6 326 12.4
2010-12-15 08:09:29 51°15.106 2°54.43 323.2 12.8 326 11.7
2010-12-15 08:09:34 51°15.121 2°54.415 323.8 12.8 327 11.7
2010-12-15 08:09:39 51°15.135 2°54.399 323.9 12.8 327 11.5
2010-12-15 08:09:44 51°15.15 2°54.384 323.8 12.9 327 11.2
2010-12-15 08:09:49 51°15.165 2°54.368 324.1 12.7 326 11.8
2010-12-15 08:09:54 51°15.18 2°54.353 323.8 12.8 327 12
2010-12-15 08:09:59 51°15.195 2°54.337 324.5 12.8 327 12
2010-12-15 08:10:03 51°15.207 2°54.325 323.9 12.7 327 11.3
2010-12-15 08:10:09 51°15.224 2°54.306 323.2 12.7 325 11.9
2010-12-15 08:10:14 51°15.238 2°54.29 322.3 12.7 326 11.7
2010-12-15 08:10:19 51°15.253 2°54.274 322.1 12.7 325 11.9
2010-12-15 08:10:24 51°15.267 2°54.258 321 12.8 325 12
2010-12-15 08:10:29 51°15.282 2°54.241 320.9 12.9 324 11.7
2010-12-15 08:10:34 51°15.296 2°54.224 320.4 12.6 323 11.1
2010-12-15 08:10:39 51°15.31 2°54.208 319.8 12.6 324 12
2010-12-15 08:10:44 51°15.324 2°54.191 320 12.7 324 12.1
2010-12-15 08:10:49 51°15.338 2°54.174 320 12.7 323 12.2
2010-12-15 08:10:54 51°15.352 2°54.157 319.9 12.7 323 11.4
2010-12-15 08:10:59 51°15.366 2°54.141 319.2 12.7 324 11.8
2010-12-15 08:11:04 51°15.38 2°54.124 319.4 12.6 323 12.1
2010-12-15 08:11:09 51°15.394 2°54.107 319.1 12.7 322 12.3
2010-12-15 08:11:14 51°15.408 2°54.089 319.1 12.7 322 12.5
2010-12-15 08:11:19 51°15.422 2°54.072 319.2 12.7 323 12.1
2010-12-15 08:11:24 51°15.435 2°54.055 318.7 12.5 321 12.5
2010-12-15 08:11:29 51°15.449 2°54.038 318.7 12.7 323 12.6
2010-12-15 08:11:35 51°15.465 2°54.017 318.7 12.7 322 12.3
2010-12-15 08:11:39 51°15.477 2°54.003 318.5 12.7 322 12.1
2010-12-15 08:11:43 51°15.488 2°53.991 318.5 12.6 323 12.5
2010-12-15 08:11:49 51°15.505 2°53.97 318.8 12.6 322 12.9
2010-12-15 08:11:54 51°15.519 2°53.952 319 12.7 322 12.6
2010-12-15 08:11:59 51°15.532 2°53.935 318.7 12.6 322 12.2
2010-12-15 08:12:04 51°15.545 2°53.918 318.2 12.5 322 12.7
2010-12-15 08:12:09 51°15.559 2°53.902 319.4 12.6 324 12.7
2010-12-15 08:12:15 51°15.576 2°53.881 318.7 12.4 322 12.9
2010-12-15 08:12:19 51°15.586 2°53.867 318.9 12.4 322 13.5
2010-12-15 08:12:24 51°15.6 2°53.85 319 12.3 322 12.2
2010-12-15 08:12:29 51°15.612 2°53.834 318 11.7 321 -999
2010-12-15 08:12:35 51°15.627 2°53.814 318.3 11.8 321 12.4
2010-12-15 08:12:39 51°15.638 2°53.802 318.5 11.8 323 13.4
2010-12-15 08:12:44 51°15.65 2°53.786 318.8 11.9 322 12.7
2010-12-15 08:12:49 51°15.664 2°53.769 318.5 12.1 323 12.9
2010-12-15 08:12:54 51°15.677 2°53.753 318.9 12.2 323 13
2010-12-15 08:12:59 51°15.691 2°53.736 318.8 12.3 323 13.6
2010-12-15 08:13:04 51°15.705 2°53.719 319.1 12.5 323 13.1
2010-12-15 08:13:09 51°15.718 2°53.703 319.2 12.5 323 13.1
2010-12-15 08:13:14 51°15.732 2°53.685 319.3 12.6 322 13.5
2010-12-15 08:13:19 51°15.745 2°53.668 319.1 12.6 322 12.9
2010-12-15 08:13:24 51°15.759 2°53.651 318.9 12.6 322 13
2010-12-15 08:13:29 51°15.773 2°53.634 319.4 12.6 322 12.8
2010-12-15 08:13:34 51°15.786 2°53.617 318.5 12.2 321 12.4
2010-12-15 08:13:39 51°15.799 2°53.601 318.3 12.1 322 13.6
2010-12-15 08:13:44 51°15.813 2°53.583 318.7 12.2 322 13.7
2010-12-15 08:13:49 51°15.826 2°53.567 318.7 12.3 322 13.5
2010-12-15 08:13:54 51°15.84 2°53.55 319.1 12.4 323 13.3
2010-12-15 08:13:59 51°15.853 2°53.533 319.4 12.4 323 13.2
2010-12-15 08:14:03 51°15.864 2°53.52 319.4 12.6 323 13.3
2010-12-15 08:14:09 51°15.881 2°53.499 319.4 12.4 322 12.9
2010-12-15 08:14:14 51°15.894 2°53.483 319.4 12.4 322 14
2010-12-15 08:14:19 51°15.907 2°53.465 319.1 12.4 321 13.7
2010-12-15 08:14:24 51°15.921 2°53.448 318.4 12.5 321 13.5
2010-12-15 08:14:29 51°15.935 2°53.431 318.7 12.6 322 13.3
2010-12-15 08:14:34 51°15.948 2°53.413 318.9 12.6 321 13.6
2010-12-15 08:14:39 51°15.962 2°53.397 319.4 12.6 322 13.2
2010-12-15 08:14:44 51°15.976 2°53.38 319.3 12.6 323 13.6
2010-12-15 08:14:49 51°15.991 2°53.366 322.4 12.6 330 13.4
2010-12-15 08:14:55 51°16.009 2°53.348 325.8 12.7 329 13.9
2010-12-15 08:14:59 51°16.022 2°53.339 327.7 12.6 332 13.2
2010-12-15 08:15:04 51°16.037 2°53.326 330 12.5 333 14.4
2010-12-15 08:15:09 51°16.053 2°53.315 331.8 12.5 335 14
2010-12-15 08:15:14 51°16.069 2°53.304 332.5 12.4 336 13.2
2010-12-15 08:15:19 51°16.085 2°53.293 333.6 12.4 337 14.2
2010-12-15 08:15:24 51°16.101 2°53.283 334.7 12.5 337 13.8
2010-12-15 08:15:29 51°16.117 2°53.273 335.2 12.4 340 13.6
2010-12-15 08:15:35 51°16.137 2°53.262 336.6 12.6 340 14.3
2010-12-15 08:15:39 51°16.149 2°53.254 336.9 12.5 339 13.6
2010-12-15 08:15:43 51°16.163 2°53.246 336.4 12.6 340 14.5
2010-12-15 08:15:49 51°16.183 2°53.234 337.2 12.6 342 13.3
2010-12-15 08:15:54 51°16.198 2°53.225 337 12.3 340 14
2010-12-15 08:15:59 51°16.215 2°53.217 337.7 12.4 342 13.8
2010-12-15 08:16:04 51°16.231 2°53.208 337.8 12.5 341 13.5
2010-12-15 08:16:09 51°16.247 2°53.199 337.5 12.4 341 14
2010-12-15 08:16:14 51°16.264 2°53.189 337 12.7 341 14.5
2010-12-15 08:16:19 51°16.281 2°53.181 337.6 12.6 342 13.7
2010-12-15 08:16:24 51°16.297 2°53.172 337.6 12.7 341 13.7
2010-12-15 08:16:29 51°16.314 2°53.163 338 12.8 342 13.6
2010-12-15 08:16:34 51°16.33 2°53.154 337.1 12.4 340 13.8
2010-12-15 08:16:39 51°16.347 2°53.145 337.4 12.4 341 14.6
2010-12-15 08:16:44 51°16.363 2°53.135 336.9 12.5 340 13.6
2010-12-15 08:16:49 51°16.379 2°53.126 336.5 12.6 340 13.8
2010-12-15 08:16:54 51°16.396 2°53.116 336 12.7 340 14.3
2010-12-15 08:16:59 51°16.412 2°53.106 336.5 12.7 340 13.7
2010-12-15 08:17:04 51°16.429 2°53.097 336 12.8 340 14.2
2010-12-15 08:17:09 51°16.445 2°53.087 336.2 12.7 340 13.8
2010-12-15 08:17:14 51°16.462 2°53.078 336.4 12.7 340 13.4
2010-12-15 08:17:19 51°16.478 2°53.069 336.4 12.6 341 14
2010-12-15 08:17:24 51°16.495 2°53.06 336.9 12.6 341 14
2010-12-15 08:17:29 51°16.511 2°53.05 336.5 12.6 340 13.9
2010-12-15 08:17:34 51°16.528 2°53.041 336.2 12.7 341 14.3
2010-12-15 08:17:39 51°16.544 2°53.031 336.2 12.7 341 13.9
2010-12-15 08:17:44 51°16.561 2°53.022 336.4 12.7 341 13.6
2010-12-15 08:17:49 51°16.577 2°53.013 336.4 12.7 340 13.9
2010-12-15 08:17:54 51°16.594 2°53.003 336.5 12.9 340 14.2
2010-12-15 08:17:59 51°16.611 2°52.994 336.2 12.9 340 13.7
2010-12-15 08:18:04 51°16.627 2°52.984 336.2 12.5 340 12.9
2010-12-15 08:18:09 51°16.643 2°52.975 335.9 12.5 340 14.3
2010-12-15 08:18:14 51°16.659 2°52.965 336.1 12.4 340 13.2
2010-12-15 08:18:19 51°16.676 2°52.956 335.8 12.5 340 13.3
2010-12-15 08:18:24 51°16.692 2°52.945 335.7 12.6 339 13.4
2010-12-15 08:18:29 51°16.709 2°52.936 335.6 12.8 340 12.9
2010-12-15 08:18:34 51°16.725 2°52.926 335.7 12.7 340 13.4
2010-12-15 08:18:39 51°16.742 2°52.917 335.9 12.6 340 12.8
2010-12-15 08:18:44 51°16.757 2°52.908 335.9 12.2 340 12.1
2010-12-15 08:18:49 51°16.773 2°52.899 336 12.1 341 12.7
2010-12-15 08:18:54 51°16.789 2°52.889 335.4 12.4 339 11.7
2010-12-15 08:18:59 51°16.806 2°52.88 335.5 12.5 340 11.3
2010-12-15 08:19:04 51°16.822 2°52.87 335.6 12.5 339 11.7
2010-12-15 08:19:09 51°16.838 2°52.86 335.4 12.7 339 11.2
2010-12-15 08:19:14 51°16.855 2°52.851 335.6 12.6 339 10.7
2010-12-15 08:19:19 51°16.871 2°52.841 335.4 12.6 339 11.6
2010-12-15 08:19:24 51°16.887 2°52.83 335.6 12.6 338 10.9
2010-12-15 08:19:29 51°16.904 2°52.82 335.3 12.8 339 11.2
2010-12-15 08:19:34 51°16.92 2°52.811 335.3 12.6 340 10.8
2010-12-15 08:19:39 51°16.937 2°52.801 335.4 12.6 339 12.1
2010-12-15 08:19:44 51°16.953 2°52.791 335.4 12.4 341 10.8
2010-12-15 08:19:49 51°16.969 2°52.781 335.7 12.3 338 12.1
2010-12-15 08:19:54 51°16.985 2°52.771 334.8 12.4 339 11.6
2010-12-15 08:19:59 51°17.001 2°52.761 335.4 12.6 339 12
2010-12-15 08:20:04 51°17.016 2°52.751 334.9 12.3 337 11.6
2010-12-15 08:20:09 51°17.033 2°52.742 334.8 12.3 340 11.8
2010-12-15 08:20:14 51°17.049 2°52.731 335.5 12.5 338 12.3
2010-12-15 08:20:19 51°17.065 2°52.721 335.5 12.5 339 12.4
2010-12-15 08:20:24 51°17.082 2°52.711 335.6 12.7 339 11.5
2010-12-15 08:20:29 51°17.097 2°52.701 335.4 12.5 339 12.1
2010-12-15 08:20:35 51°17.116 2°52.688 335.4 12.3 337 11.1
2010-12-15 08:20:39 51°17.129 2°52.68 334.9 12.3 338 11.8
2010-12-15 08:20:43 51°17.142 2°52.672 335 12.5 339 11.4
2010-12-15 08:20:49 51°17.162 2°52.661 335.5 12.6 339 12.2
2010-12-15 08:20:54 51°17.178 2°52.65 335.4 12.7 337 12.2
2010-12-15 08:20:59 51°17.194 2°52.639 335.2 12.8 338 11.6
2010-12-15 08:21:04 51°17.211 2°52.628 335.4 12.7 338 11.4
2010-12-15 08:21:09 51°17.228 2°52.618 335.1 12.8 338 11.9
2010-12-15 08:21:14 51°17.244 2°52.607 335.1 12.8 338 11.9
2010-12-15 08:21:19 51°17.26 2°52.595 335.1 12.8 337 11.5
2010-12-15 08:21:24 51°17.276 2°52.585 334.4 12.7 340 12.3
2010-12-15 08:21:29 51°17.293 2°52.575 335.4 12.8 339 12.2
2010-12-15 08:21:34 51°17.309 2°52.566 335.3 12.7 340 12.6
2010-12-15 08:21:39 51°17.326 2°52.555 335.9 12.5 339 12.8
2010-12-15 08:21:44 51°17.342 2°52.546 335.4 12.3 340 11.8
2010-12-15 08:21:50 51°17.361 2°52.534 335.9 12.3 339 12.1
2010-12-15 08:21:55 51°17.377 2°52.524 335.4 12.4 340 12.1
2010-12-15 08:21:59 51°17.39 2°52.516 335.4 12.4 338 12
2010-12-15 08:22:04 51°17.406 2°52.506 335.1 12.6 339 12.8
2010-12-15 08:22:09 51°17.422 2°52.496 335.4 12.7 338 12.7
2010-12-15 08:22:14 51°17.439 2°52.486 335.2 12.7 338 12.3
2010-12-15 08:22:19 51°17.456 2°52.476 335.2 12.8 339 12.7
2010-12-15 08:22:24 51°17.473 2°52.465 335.4 12.9 338 12.6
2010-12-15 08:22:29 51°17.489 2°52.455 335.5 12.9 338 12.1
2010-12-15 08:22:34 51°17.505 2°52.445 335 12.4 339 11.7
2010-12-15 08:22:39 51°17.521 2°52.434 335 12.4 339 13.1
2010-12-15 08:22:44 51°17.537 2°52.425 335.8 12.5 339 12
2010-12-15 08:22:49 51°17.553 2°52.414 335.1 12.2 337 12.5
2010-12-15 08:22:54 51°17.568 2°52.404 335.2 12.3 339 13
2010-12-15 08:22:59 51°17.585 2°52.394 335.3 12.4 338 12.9
2010-12-15 08:23:04 51°17.601 2°52.384 336 12.6 339 12.4
2010-12-15 08:23:09 51°17.617 2°52.373 335 12.7 338 12.1
2010-12-15 08:23:14 51°17.634 2°52.363 335.3 12.8 339 12.9
2010-12-15 08:23:19 51°17.651 2°52.353 335.7 12.8 339 12.7
2010-12-15 08:23:24 51°17.667 2°52.343 335.5 13 340 12.3
2010-12-15 08:23:29 51°17.684 2°52.332 336 12.9 338 12.2
2010-12-15 08:23:34 51°17.7 2°52.322 335.6 12.8 339 12.2
2010-12-15 08:23:39 51°17.717 2°52.311 335.8 12.8 338 12.7
2010-12-15 08:23:44 51°17.733 2°52.3 335.6 12.8 337 12.7
2010-12-15 08:23:49 51°17.749 2°52.29 335.2 12.5 337 11.7
2010-12-15 08:23:55 51°17.769 2°52.278 335 12.5 338 12.5
2010-12-15 08:23:59 51°17.782 2°52.269 335.4 12.7 338 12.2
2010-12-15 08:24:04 51°17.797 2°52.258 335.6 12.5 336 13
2010-12-15 08:24:09 51°17.814 2°52.248 334.6 12.6 338 13.2
2010-12-15 08:24:14 51°17.83 2°52.236 335.2 12.8 337 13
2010-12-15 08:24:19 51°17.847 2°52.227 335.4 12.8 339 13.5
2010-12-15 08:24:24 51°17.863 2°52.216 335.8 12.6 338 12.7
2010-12-15 08:24:29 51°17.88 2°52.205 335.4 12.7 339 13.6
2010-12-15 08:24:34 51°17.896 2°52.195 336.1 12.7 339 12.8
2010-12-15 08:24:39 51°17.913 2°52.185 336.2 12.9 339 12.9
2010-12-15 08:24:44 51°17.93 2°52.175 336.1 12.8 339 13
2010-12-15 08:24:49 51°17.946 2°52.164 335.7 12.9 338 13.8
2010-12-15 08:24:54 51°17.963 2°52.154 335.4 12.9 337 13
2010-12-15 08:24:59 51°17.98 2°52.143 334.7 12.8 337 13.5
2010-12-15 08:25:04 51°17.996 2°52.132 335.1 12.8 338 13.3
2010-12-15 08:25:09 51°18.012 2°52.122 335.2 12.5 338 13.6
2010-12-15 08:25:14 51°18.028 2°52.111 335.3 12.6 339 13.9
2010-12-15 08:25:19 51°18.045 2°52.101 335.6 12.6 339 13.1
2010-12-15 08:25:24 51°18.061 2°52.091 335.8 12.7 338 12.9
2010-12-15 08:25:29 51°18.078 2°52.081 335.9 12.7 338 12.7
2010-12-15 08:25:34 51°18.093 2°52.07 335 12.3 338 13.4
2010-12-15 08:25:39 51°18.109 2°52.06 334.9 12.4 338 13.7
2010-12-15 08:25:44 51°18.125 2°52.049 335.1 12.6 338 13.5
2010-12-15 08:25:49 51°18.142 2°52.038 335.4 12.5 338 12.8
2010-12-15 08:25:54 51°18.158 2°52.028 335.6 12.6 338 13.7
2010-12-15 08:25:59 51°18.174 2°52.017 335.4 12.4 337 13.2
2010-12-15 08:26:04 51°18.189 2°52.007 335.2 12 337 12.6
2010-12-15 08:26:09 51°18.204 2°51.997 334.7 12.2 338 13.6
2010-12-15 08:26:14 51°18.22 2°51.986 335.5 12.3 338 13.4
2010-12-15 08:26:19 51°18.236 2°51.976 335.6 12.3 338 12.6
2010-12-15 08:26:24 51°18.251 2°51.966 335.4 12.1 338 12.6
2010-12-15 08:26:29 51°18.267 2°51.956 335.6 12.3 338 13.3
2010-12-15 08:26:34 51°18.283 2°51.945 335.4 12.2 338 12.8
2010-12-15 08:26:39 51°18.298 2°51.935 335.4 12 337 14.4
2010-12-15 08:26:44 51°18.314 2°51.924 335.3 12.2 338 13.4
2010-12-15 08:26:49 51°18.33 2°51.915 335.4 12.3 340 14.2
2010-12-15 08:26:54 51°18.346 2°51.906 335.8 12.1 340 12.9
2010-12-15 08:26:59 51°18.362 2°51.896 336.2 12.3 338 13.3
2010-12-15 08:27:04 51°18.377 2°51.886 335.7 12.3 338 12.9
2010-12-15 08:27:09 51°18.393 2°51.875 335.3 12.2 337 13.7
2010-12-15 08:27:14 51°18.409 2°51.865 335.4 12.2 338 14.7
2010-12-15 08:27:19 51°18.425 2°51.855 335.4 12.2 337 14.8
2010-12-15 08:27:24 51°18.44 2°51.844 335.3 12.2 337 14
2010-12-15 08:27:29 51°18.456 2°51.833 334.5 12.2 337 13.7
2010-12-15 08:27:34 51°18.471 2°51.823 334.8 12.1 338 14.1
2010-12-15 08:27:39 51°18.487 2°51.812 335.2 12.3 337 14.9
2010-12-15 08:27:44 51°18.503 2°51.801 335.2 12.4 336 13.8
2010-12-15 08:27:49 51°18.518 2°51.79 334.7 12.1 336 14
2010-12-15 08:27:55 51°18.537 2°51.776 334.2 12.3 335 15.7
2010-12-15 08:27:59 51°18.549 2°51.768 334.7 11.8 335 15.4
2010-12-15 08:28:04 51°18.563 2°51.757 334.3 11.6 336 14.3
2010-12-15 08:28:09 51°18.579 2°51.747 335 12 337 15.7
2010-12-15 08:28:14 51°18.594 2°51.737 335.4 12.2 338 15
2010-12-15 08:28:19 51°18.611 2°51.727 335.5 12.4 338 14.5
2010-12-15 08:28:24 51°18.626 2°51.717 335.4 12.3 338 15
2010-12-15 08:28:29 51°18.642 2°51.707 335.4 12.4 337 15.6
2010-12-15 08:28:34 51°18.657 2°51.696 335.5 11.5 335 -999
2010-12-15 08:28:40 51°18.674 2°51.683 334.3 11.2 334 14.5
2010-12-15 08:28:45 51°18.688 2°51.672 335.1 11.3 335 -999
2010-12-15 08:28:51 51°18.705 2°51.661 333.4 11 337 -999
2010-12-15 08:28:56 51°18.719 2°51.651 334.6 11.2 337 -999
2010-12-15 08:29:01 51°18.735 2°51.641 334.5 11.8 338 15.3
2010-12-15 08:29:06 51°18.75 2°51.632 335.3 11.8 338 16.5
2010-12-15 08:29:11 51°18.765 2°51.622 335.5 11.9 338 15.6
2010-12-15 08:29:15 51°18.778 2°51.613 335.6 12.2 338 16.1
2010-12-15 08:29:20 51°18.794 2°51.603 335.5 12.4 338 15.7
2010-12-15 08:29:25 51°18.81 2°51.592 335.4 12.7 337 16.7
2010-12-15 08:29:30 51°18.826 2°51.582 335.4 12.6 338 16.7
2010-12-15 08:29:35 51°18.843 2°51.572 335 12.6 338 16.1
2010-12-15 08:29:39 51°18.856 2°51.564 336.1 12.8 340 16.7
2010-12-15 08:29:44 51°18.872 2°51.553 335.4 12.8 336 16.2
2010-12-15 08:29:49 51°18.889 2°51.542 335.1 12.9 338 16.6
2010-12-15 08:29:54 51°18.905 2°51.531 335.4 12.9 337 17.2
2010-12-15 08:29:59 51°18.922 2°51.519 335.4 13 336 17
2010-12-15 08:30:04 51°18.938 2°51.508 334.9 13.1 336 16.4
2010-12-15 08:30:09 51°18.955 2°51.497 335.2 13.1 338 16.4
2010-12-15 08:30:14 51°18.972 2°51.486 335.4 13 338 15.9
2010-12-15 08:30:19 51°18.988 2°51.475 335.7 13.1 338 16.3
2010-12-15 08:30:23 51°19.002 2°51.467 335.9 12.6 337 17.8
2010-12-15 08:30:29 51°19.02 2°51.454 335.8 12.4 337 -999
2010-12-15 08:30:35 51°19.039 2°51.441 335 12.1 337 -999
2010-12-15 08:30:40 51°19.055 2°51.431 334.9 12.3 338 17.1
2010-12-15 08:30:45 51°19.071 2°51.42 335.6 12.4 337 17.6
2010-12-15 08:30:50 51°19.088 2°51.41 335.6 12.7 338 17.5
2010-12-15 08:30:55 51°19.104 2°51.399 335.8 12.7 337 16.8
2010-12-15 08:30:59 51°19.117 2°51.39 335.4 12.8 336 17.6
2010-12-15 08:31:04 51°19.133 2°51.378 335 12.7 336 16.6
2010-12-15 08:31:09 51°19.149 2°51.368 335.3 12.5 337 16.2
2010-12-15 08:31:14 51°19.164 2°51.355 334.3 12.5 333 16.6
2010-12-15 08:31:19 51°19.179 2°51.341 329.6 12.7 329 16.6
2010-12-15 08:31:24 51°19.194 2°51.327 328 12.5 331 17.6
2010-12-15 08:31:29 51°19.209 2°51.311 327 12.7 326 17.8
2010-12-15 08:31:35 51°19.225 2°51.294 325 11.7 325 -999
2010-12-15 08:31:40 51°19.238 2°51.279 323.9 11.8 327 -999
2010-12-15 08:31:45 51°19.252 2°51.265 324 12.1 326 17.4
2010-12-15 08:31:50 51°19.266 2°51.249 323.5 12.3 325 17.7
2010-12-15 08:31:55 51°19.28 2°51.234 323.1 12.3 326 17
2010-12-15 08:31:59 51°19.292 2°51.221 322.6 12.4 325 16.8
2010-12-15 08:32:05 51°19.308 2°51.202 322.5 12.3 325 17.6
2010-12-15 08:32:10 51°19.323 2°51.186 322 12.5 324 17.2
2010-12-15 08:32:15 51°19.337 2°51.171 322.2 12.6 326 16.9
2010-12-15 08:32:19 51°19.348 2°51.158 322.3 12.6 325 17
2010-12-15 08:32:24 51°19.362 2°51.141 322.5 12.2 323 18.1
2010-12-15 08:32:30 51°19.377 2°51.121 321.7 12 322 -999
2010-12-15 08:32:35 51°19.391 2°51.105 320.7 12.1 324 16.3
2010-12-15 08:32:39 51°19.402 2°51.093 322.1 12 325 16.5
2010-12-15 08:32:44 51°19.416 2°51.077 321.6 12.1 323 17.2
2010-12-15 08:32:49 51°19.429 2°51.061 322.1 12.4 324 17.4
2010-12-15 08:32:54 51°19.443 2°51.045 321.9 12.3 323 16.3
2010-12-15 08:32:59 51°19.457 2°51.03 321.7 12.2 324 17.2
2010-12-15 08:33:03 51°19.467 2°51.017 322.6 12.2 323 17.1
2010-12-15 08:33:09 51°19.484 2°50.998 322.3 12.1 324 16.4
2010-12-15 08:33:14 51°19.497 2°50.982 321.9 12.1 324 15.6
2010-12-15 08:33:19 51°19.511 2°50.967 322.7 12.2 324 15.6
2010-12-15 08:33:24 51°19.524 2°50.95 321.9 12.3 321 15.9
2010-12-15 08:33:29 51°19.539 2°50.935 322 12.2 324 15.5
2010-12-15 08:33:34 51°19.552 2°50.918 322.2 12.3 322 16.1
2010-12-15 08:33:39 51°19.566 2°50.901 321.9 12 323 16
2010-12-15 08:33:44 51°19.579 2°50.885 322.5 12.1 323 -999
2010-12-15 08:33:50 51°19.595 2°50.866 321.9 12.1 323 15.3
2010-12-15 08:33:55 51°19.609 2°50.85 323.3 12.4 325 14.9
2010-12-15 08:33:59 51°19.619 2°50.836 322.4 12.4 321 14.9
2010-12-15 08:34:04 51°19.634 2°50.821 322.3 12.5 326 14.4
2010-12-15 08:34:09 51°19.648 2°50.805 323.1 12.5 323 13.8
2010-12-15 08:34:14 51°19.662 2°50.789 322.8 12.4 324 15.1
2010-12-15 08:34:19 51°19.676 2°50.772 322.9 12.4 323 14.6
2010-12-15 08:34:24 51°19.689 2°50.756 322.8 12.4 324 14.1
2010-12-15 08:34:29 51°19.703 2°50.739 322.8 12.3 321 15.2
2010-12-15 08:34:34 51°19.716 2°50.724 322.4 12.2 324 13.8
2010-12-15 08:34:39 51°19.73 2°50.709 323.1 12.2 324 13.6
2010-12-15 08:34:44 51°19.743 2°50.693 322.6 12 325 14.6
2010-12-15 08:34:49 51°19.757 2°50.678 323.4 12 326 13.9
2010-12-15 08:34:54 51°19.771 2°50.662 323.9 12.3 325 12.7
2010-12-15 08:34:59 51°19.785 2°50.646 323 12.3 325 13
2010-12-15 08:35:03 51°19.796 2°50.634 323.1 12.2 324 14.7
2010-12-15 08:35:09 51°19.813 2°50.614 323.3 12.6 325 15.3
2010-12-15 08:35:14 51°19.826 2°50.598 323.1 12.2 323 13.9
2010-12-15 08:35:19 51°19.839 2°50.582 322.1 11.6 323 -999
2010-12-15 08:35:25 51°19.854 2°50.564 322.4 11.7 323 -999
2010-12-15 08:35:30 51°19.867 2°50.549 323.3 11.6 324 -999
2010-12-15 08:35:35 51°19.881 2°50.533 322.4 11.8 324 15.3
2010-12-15 08:35:39 51°19.892 2°50.521 323.3 12 325 15.9
2010-12-15 08:35:45 51°19.908 2°50.502 323.6 12.3 323 16.1
2010-12-15 08:35:49 51°19.919 2°50.489 323.6 12.2 324 15.7
2010-12-15 08:35:54 51°19.932 2°50.474 322.8 12.2 324 16.7
2010-12-15 08:35:59 51°19.946 2°50.458 323.9 12.1 325 17.3
2010-12-15 08:36:04 51°19.959 2°50.442 322 12.1 322 16.3
2010-12-15 08:36:09 51°19.974 2°50.428 322.3 12.3 327 16.7
2010-12-15 08:36:14 51°19.988 2°50.412 323.4 12.5 323 16.9
2010-12-15 08:36:19 51°20.002 2°50.396 323.3 12.6 325 16.6
2010-12-15 08:36:24 51°20.017 2°50.379 323.5 12.7 325 17.5
2010-12-15 08:36:29 51°20.031 2°50.363 323.4 12.8 325 17.6
2010-12-15 08:36:34 51°20.046 2°50.347 323.7 12.5 325 17
2010-12-15 08:36:39 51°20.059 2°50.331 323.3 12.3 324 17.8
2010-12-15 08:36:44 51°20.073 2°50.314 322.9 12.3 322 17.1
2010-12-15 08:36:49 51°20.086 2°50.298 322.3 12.3 324 17.3
2010-12-15 08:36:54 51°20.1 2°50.283 323.1 11.9 324 17.5
2010-12-15 08:36:59 51°20.112 2°50.267 323.3 11.4 322 -999
2010-12-15 08:37:05 51°20.128 2°50.248 323.3 11.3 324 -999
2010-12-15 08:37:10 51°20.141 2°50.234 322.5 11.6 325 -999
2010-12-15 08:37:15 51°20.154 2°50.219 323.6 11.9 325 17.7
2010-12-15 08:37:20 51°20.168 2°50.204 324.1 12 325 18.2
2010-12-15 08:37:25 51°20.182 2°50.189 323.7 12.4 325 18.8
2010-12-15 08:37:30 51°20.197 2°50.173 323.8 12.3 326 19.1
2010-12-15 08:37:35 51°20.211 2°50.158 323.8 12.4 325 18.3
2010-12-15 08:37:40 51°20.225 2°50.142 323.7 12.6 326 18.9
2010-12-15 08:37:45 51°20.239 2°50.126 323.8 12.5 326 18.8
2010-12-15 08:37:49 51°20.25 2°50.113 323.2 12.3 325 20
2010-12-15 08:37:55 51°20.268 2°50.094 323.2 12.6 326 20.6
2010-12-15 08:37:59 51°20.279 2°50.081 323.8 12.6 325 20.2
2010-12-15 08:38:04 51°20.293 2°50.066 324.1 12.6 326 20
2010-12-15 08:38:09 51°20.307 2°50.05 323.5 12.5 324 19.9
2010-12-15 08:38:14 51°20.321 2°50.034 323.3 12.3 324 21
2010-12-15 08:38:19 51°20.335 2°50.018 322.9 12.3 325 21.8
2010-12-15 08:38:24 51°20.349 2°50.001 323.1 12.6 325 21.7
2010-12-15 08:38:29 51°20.364 2°49.986 323.4 12.6 325 21.7
2010-12-15 08:38:34 51°20.378 2°49.97 323.8 12.6 325 22.2
2010-12-15 08:38:39 51°20.393 2°49.954 323.8 12.6 326 22.7
2010-12-15 08:38:44 51°20.407 2°49.938 323.8 12.8 326 22
2010-12-15 08:38:49 51°20.422 2°49.922 323.3 12.5 326 22.1
2010-12-15 08:38:54 51°20.436 2°49.906 323.7 12.6 326 22.8
2010-12-15 08:38:59 51°20.451 2°49.89 323.5 12.6 325 23.2
2010-12-15 08:39:04 51°20.465 2°49.874 323.7 12.6 325 23.7
2010-12-15 08:39:09 51°20.479 2°49.858 324 12.5 325 23.7
2010-12-15 08:39:15 51°20.497 2°49.839 322.6 12.6 326 23.4
2010-12-15 08:39:19 51°20.508 2°49.827 323.2 12.6 325 23
2010-12-15 08:39:24 51°20.521 2°49.81 322.5 12.1 324 25
2010-12-15 08:39:29 51°20.535 2°49.794 322.6 12.3 325 25.2
2010-12-15 08:39:34 51°20.549 2°49.779 322.9 12.1 325 24.1
2010-12-15 08:39:39 51°20.562 2°49.764 323.1 11.9 324 23.6
2010-12-15 08:39:44 51°20.575 2°49.748 322.4 11.9 324 24.5
2010-12-15 08:39:49 51°20.589 2°49.732 322.3 12 325 24.1
2010-12-15 08:39:54 51°20.603 2°49.717 322.9 11.9 325 24.8
2010-12-15 08:39:59 51°20.616 2°49.701 322.6 11.9 323 25.8
2010-12-15 08:40:04 51°20.63 2°49.686 322.7 12.1 325 24.3
2010-12-15 08:40:09 51°20.643 2°49.67 322.9 11.6 323 23.6
2010-12-15 08:40:15 51°20.658 2°49.652 322.4 11.5 324 -999
2010-12-15 08:40:19 51°20.668 2°49.641 322.2 11.1 324 26
2010-12-15 08:40:25 51°20.683 2°49.625 322.9 10.6 326 24.1
2010-12-15 08:40:30 51°20.696 2°49.611 323 11.2 326 24.4
2010-12-15 08:40:35 51°20.709 2°49.597 323.8 11.3 327 25.1
2010-12-15 08:40:39 51°20.72 2°49.586 323 11.5 326 24.6
2010-12-15 08:40:44 51°20.733 2°49.571 323.2 11.9 326 25.5
2010-12-15 08:40:50 51°20.75 2°49.552 322.4 12.2 325 25.2
2010-12-15 08:40:55 51°20.764 2°49.536 322.9 12.2 326 24.5
2010-12-15 08:40:59 51°20.775 2°49.524 322.8 12.3 325 25.1
2010-12-15 08:41:04 51°20.789 2°49.508 322.7 12.5 325 25.3
2010-12-15 08:41:09 51°20.803 2°49.491 323.5 12.5 325 25.7
2010-12-15 08:41:15 51°20.821 2°49.472 323.6 12.6 325 25.6
2010-12-15 08:41:19 51°20.832 2°49.459 323.5 12.4 324 25.4
2010-12-15 08:41:24 51°20.845 2°49.443 323.4 12.4 323 24.2
2010-12-15 08:41:29 51°20.859 2°49.428 322.9 12.1 325 24.6
2010-12-15 08:41:35 51°20.875 2°49.409 322.8 12.2 325 24.8
2010-12-15 08:41:39 51°20.887 2°49.396 323 12.2 325 25.3
2010-12-15 08:41:44 51°20.901 2°49.38 323.1 12.4 326 25.8
2010-12-15 08:41:49 51°20.915 2°49.365 323.3 12.2 325 24.4
2010-12-15 08:41:54 51°20.929 2°49.35 323.4 12.2 325 24.7
2010-12-15 08:41:59 51°20.943 2°49.334 323.8 12.4 326 24.2
2010-12-15 08:42:04 51°20.957 2°49.318 323.5 12.5 326 24.9
2010-12-15 08:42:09 51°20.971 2°49.302 324.2 12.5 325 24.2
2010-12-15 08:42:14 51°20.985 2°49.286 323.8 12.4 323 24.9
2010-12-15 08:42:19 51°20.999 2°49.27 322.8 12.3 323 25.3
2010-12-15 08:42:24 51°21.012 2°49.256 323.8 12 325 23
2010-12-15 08:42:29 51°21.026 2°49.24 322.7 11.9 324 23.8
2010-12-15 08:42:34 51°21.04 2°49.225 322.5 12.2 326 23.8
2010-12-15 08:42:39 51°21.054 2°49.209 323 12.4 325 23.8
2010-12-15 08:42:44 51°21.068 2°49.193 323 12.5 326 23.8
2010-12-15 08:42:49 51°21.082 2°49.177 323.6 12.1 324 -999
2010-12-15 08:42:55 51°21.098 2°49.157 322.5 12.2 324 24.1
2010-12-15 08:42:59 51°21.109 2°49.146 322.6 12.2 326 23.8
2010-12-15 08:43:04 51°21.123 2°49.129 323.7 12.4 324 24.2
2010-12-15 08:43:09 51°21.137 2°49.114 323.2 12.5 326 24.5
2010-12-15 08:43:14 51°21.151 2°49.097 323.7 12.6 322 24.5
2010-12-15 08:43:19 51°21.166 2°49.082 323.7 12.5 326 23.7
2010-12-15 08:43:23 51°21.177 2°49.069 323.1 12.4 325 23.2
2010-12-15 08:43:29 51°21.194 2°49.051 323.4 12.1 327 23.7
2010-12-15 08:43:34 51°21.209 2°49.036 323.7 12.3 326 23.8
2010-12-15 08:43:39 51°21.223 2°49.02 324.3 12.2 326 23.6
2010-12-15 08:43:44 51°21.237 2°49.004 324.4 12.3 325 21.6
2010-12-15 08:43:49 51°21.25 2°48.989 323.5 12.4 324 21.2
2010-12-15 08:43:54 51°21.264 2°48.973 323.1 12.3 326 21.9
2010-12-15 08:43:59 51°21.278 2°48.957 323.4 12.3 324 22
2010-12-15 08:44:03 51°21.289 2°48.945 323.4 12.3 325 22
2010-12-15 08:44:09 51°21.306 2°48.926 323 12.6 325 22.6
2010-12-15 08:44:14 51°21.32 2°48.91 323.6 12.6 325 22.5
2010-12-15 08:44:19 51°21.335 2°48.894 323.9 12.6 325 22.3
2010-12-15 08:44:24 51°21.349 2°48.878 323.8 12.5 325 23.2
2010-12-15 08:44:29 51°21.363 2°48.862 323.4 12.6 325 23.8
2010-12-15 08:44:34 51°21.377 2°48.846 323.1 12.4 325 22.9
2010-12-15 08:44:39 51°21.391 2°48.83 323.2 12.6 325 23.3
2010-12-15 08:44:43 51°21.403 2°48.818 323.5 12.4 324 24.2
2010-12-15 08:44:49 51°21.42 2°48.798 323.3 12.5 324 23.7
2010-12-15 08:44:54 51°21.434 2°48.783 323.5 12.4 325 23.7
2010-12-15 08:44:59 51°21.448 2°48.767 323.5 12.6 325 24.3
2010-12-15 08:45:04 51°21.462 2°48.75 323.7 12.7 325 24
2010-12-15 08:45:09 51°21.477 2°48.734 323.7 12.5 324 23.3
2010-12-15 08:45:14 51°21.49 2°48.718 322.8 12.4 324 24.3
2010-12-15 08:45:19 51°21.504 2°48.701 323.1 12.4 323 24.8
2010-12-15 08:45:23 51°21.515 2°48.689 323.3 12.2 325 24.2
2010-12-15 08:45:29 51°21.532 2°48.67 323.3 12.1 324 24.7
2010-12-15 08:45:34 51°21.545 2°48.654 323.3 12.2 323 25.7
2010-12-15 08:45:39 51°21.559 2°48.638 322.8 12.1 324 24.9
2010-12-15 08:45:44 51°21.573 2°48.622 323.2 12.4 325 24.2
2010-12-15 08:45:49 51°21.586 2°48.606 322.1 12.2 322 25
2010-12-15 08:45:54 51°21.6 2°48.59 323 12.3 325 24.7
2010-12-15 08:45:59 51°21.614 2°48.573 322.4 12.3 322 24.3
2010-12-15 08:46:03 51°21.624 2°48.561 322.8 11.9 324 -999
2010-12-15 08:46:10 51°21.642 2°48.538 322.1 11.3 321 -999
2010-12-15 08:46:15 51°21.654 2°48.524 322.6 11.1 323 -999
2010-12-15 08:46:21 51°21.669 2°48.504 322.3 11.4 321 25.3
2010-12-15 08:46:26 51°21.682 2°48.49 322.4 11.4 325 26.2
2010-12-15 08:46:31 51°21.695 2°48.474 323.6 11.6 322 25.4
2010-12-15 08:46:35 51°21.706 2°48.461 321.3 12 323 25.4
2010-12-15 08:46:40 51°21.72 2°48.445 322.9 12.2 325 25.4
2010-12-15 08:46:45 51°21.734 2°48.429 323.3 12.4 324 25.7
2010-12-15 08:46:50 51°21.748 2°48.413 323.7 12.5 325 26
2010-12-15 08:46:55 51°21.761 2°48.397 323.8 12.3 324 24.8
2010-12-15 08:46:59 51°21.772 2°48.384 323.4 12.2 323 25.4
2010-12-15 08:47:05 51°21.789 2°48.365 323.2 12.3 324 25.4
2010-12-15 08:47:10 51°21.801 2°48.349 323.4 12 323 24.9
2010-12-15 08:47:15 51°21.814 2°48.332 322.7 11.7 323 24.8
2010-12-15 08:47:19 51°21.825 2°48.32 322.9 11.6 324 25.6
2010-12-15 08:47:24 51°21.838 2°48.305 323.2 11.7 324 25.1
2010-12-15 08:47:29 51°21.851 2°48.29 324.3 11.8 323 26.8
2010-12-15 08:47:35 51°21.868 2°48.271 323.5 11.9 325 26.3
2010-12-15 08:47:39 51°21.879 2°48.26 324.1 11.8 327 24.9
2010-12-15 08:47:44 51°21.892 2°48.244 323.6 11.8 326 23.5
2010-12-15 08:47:49 51°21.905 2°48.229 324 11.8 325 24.4
2010-12-15 08:47:54 51°21.918 2°48.213 323.2 11.9 325 24
2010-12-15 08:47:59 51°21.933 2°48.198 323.8 12 326 24.7
2010-12-15 08:48:04 51°21.947 2°48.182 323.1 12.6 325 24.6
2010-12-15 08:48:09 51°21.96 2°48.166 323.7 12.4 324 24.1
2010-12-15 08:48:15 51°21.976 2°48.147 322.6 11.9 322 24.7
2010-12-15 08:48:19 51°21.987 2°48.135 322.7 12.3 325 24.7
2010-12-15 08:48:24 51°22.001 2°48.119 323.3 12.2 325 25.1
2010-12-15 08:48:29 51°22.015 2°48.103 323.9 12.4 325 25.9
2010-12-15 08:48:34 51°22.03 2°48.087 324.5 12.6 325 26.2
2010-12-15 08:48:39 51°22.044 2°48.07 323.1 12.5 323 26.5
2010-12-15 08:48:44 51°22.058 2°48.054 323.2 12.7 324 26.5
2010-12-15 08:48:49 51°22.072 2°48.038 324 12.8 325 26.2
2010-12-15 08:48:54 51°22.086 2°48.021 323.1 12.4 322 25.7
2010-12-15 08:48:59 51°22.1 2°48.005 323.3 12.3 326 26.3
2010-12-15 08:49:03 51°22.111 2°47.993 323.3 12.5 324 26.2
2010-12-15 08:49:09 51°22.129 2°47.974 323.8 12.6 326 25.3
2010-12-15 08:49:14 51°22.142 2°47.957 323.5 11.9 323 -999
2010-12-15 08:49:20 51°22.157 2°47.939 322.3 11.5 325 26
2010-12-15 08:49:25 51°22.17 2°47.924 323.7 11.5 327 -999
2010-12-15 08:49:30 51°22.183 2°47.91 323.6 11.5 325 26.1
2010-12-15 08:49:35 51°22.197 2°47.895 323.5 11.7 326 24.4
2010-12-15 08:49:40 51°22.211 2°47.88 323.7 12 325 25.2
2010-12-15 08:49:45 51°22.224 2°47.864 323.4 12 324 24.1
2010-12-15 08:49:50 51°22.238 2°47.848 322.7 12.1 324 24.4
2010-12-15 08:49:55 51°22.252 2°47.833 322.6 12.1 325 24.3
2010-12-15 08:49:59 51°22.263 2°47.82 323.6 12 325 25.2
2010-12-15 08:50:04 51°22.276 2°47.804 322.7 11.8 323 -999
2010-12-15 08:50:10 51°22.292 2°47.786 323 11.9 325 23.5
2010-12-15 08:50:15 51°22.305 2°47.772 323.2 11.8 326 20.4
2010-12-15 08:50:19 51°22.316 2°47.759 323.1 12.1 323 19.1
2010-12-15 08:50:24 51°22.33 2°47.744 323 12.2 327 16.9
2010-12-15 08:50:29 51°22.344 2°47.728 323.4 12.4 325 19.5
2010-12-15 08:50:34 51°22.359 2°47.713 323.1 12.4 328 21
2010-12-15 08:50:39 51°22.373 2°47.696 323.1 12.4 324 22.1
2010-12-15 08:50:44 51°22.387 2°47.68 323 12.4 324 21
2010-12-15 08:50:49 51°22.4 2°47.664 322.3 12.4 325 -999
2010-12-15 08:50:55 51°22.417 2°47.646 323 12.2 325 21.7
2010-12-15 08:50:59 51°22.428 2°47.633 322.8 12.2 325 20.1
2010-12-15 08:51:04 51°22.442 2°47.618 323.4 12 325 20.5
2010-12-15 08:51:09 51°22.455 2°47.603 323.1 11.8 325 -999
2010-12-15 08:51:15 51°22.471 2°47.585 324.2 11.5 326 -999
2010-12-15 08:51:20 51°22.484 2°47.569 322.4 11.6 323 18.2
2010-12-15 08:51:25 51°22.497 2°47.555 323.1 11.7 325 18.5
2010-12-15 08:51:30 51°22.51 2°47.54 323.8 11.1 324 -999
2010-12-15 08:51:35 51°22.522 2°47.527 322 10.8 327 -999
2010-12-15 08:51:41 51°22.536 2°47.51 322.7 10.9 324 -999
2010-12-15 08:51:46 51°22.549 2°47.496 322.8 10.9 325 18.3
2010-12-15 08:51:51 51°22.561 2°47.482 323.2 10.8 325 22.4
2010-12-15 08:51:57 51°22.576 2°47.464 323.1 11.3 324 -999
2010-12-15 08:52:02 51°22.589 2°47.45 321.9 11.5 325 20.7
2010-12-15 08:52:07 51°22.603 2°47.434 323.2 11.7 325 20.4
2010-12-15 08:52:11 51°22.613 2°47.422 322.3 11.7 323 20.2
2010-12-15 08:52:16 51°22.627 2°47.408 322.4 11.9 327 20.8
2010-12-15 08:52:21 51°22.64 2°47.391 323.7 12 322 20
2010-12-15 08:52:26 51°22.653 2°47.376 322 11.8 324 -999
2010-12-15 08:52:31 51°22.667 2°47.361 322.4 12 324 22.5
2010-12-15 08:52:36 51°22.681 2°47.346 323.4 12.2 325 21.5
2010-12-15 08:52:40 51°22.692 2°47.334 323.1 12.3 326 20.9
2010-12-15 08:52:45 51°22.706 2°47.319 323.5 12.2 325 21.2
2010-12-15 08:52:50 51°22.72 2°47.302 323.7 12.3 324 21
2010-12-15 08:52:55 51°22.734 2°47.287 323.5 12.2 326 22.6
2010-12-15 08:53:00 51°22.748 2°47.273 324 12.2 326 22.4
2010-12-15 08:53:05 51°22.763 2°47.258 323.7 12.4 327 23.4
2010-12-15 08:53:10 51°22.777 2°47.243 324.1 12.3 327 22.4
2010-12-15 08:53:15 51°22.791 2°47.228 323.9 12.1 327 22.2
2010-12-15 08:53:19 51°22.802 2°47.216 323.9 12.4 326 22.1
2010-12-15 08:53:24 51°22.817 2°47.2 323.8 12.5 326 21
2010-12-15 08:53:29 51°22.831 2°47.184 324 12.6 326 20.9
2010-12-15 08:53:35 51°22.849 2°47.166 324 12.7 327 20.1
2010-12-15 08:53:39 51°22.86 2°47.153 324.6 12.7 325 19
2010-12-15 08:53:43 51°22.872 2°47.14 322.6 12.3 325 18.2
2010-12-15 08:53:49 51°22.888 2°47.121 322 12.3 325 18.9
2010-12-15 08:53:54 51°22.903 2°47.107 323.1 12.4 327 19.7
2010-12-15 08:53:59 51°22.917 2°47.091 323.4 12.4 325 19.6
2010-12-15 08:54:04 51°22.931 2°47.076 323.7 12.2 326 19.9
2010-12-15 08:54:09 51°22.945 2°47.061 323.5 11.9 326 20.2
2010-12-15 08:54:14 51°22.959 2°47.046 323.1 11.9 326 -999
2010-12-15 08:54:19 51°22.973 2°47.03 322.5 12.1 325 21.4
2010-12-15 08:54:24 51°22.987 2°47.015 323.9 12.2 327 22.9
2010-12-15 08:54:29 51°23.001 2°46.998 323.5 12.4 323 24.1
2010-12-15 08:54:34 51°23.015 2°46.983 322.9 12.3 327 23.3
2010-12-15 08:54:39 51°23.029 2°46.969 323.5 12.1 327 23.8
2010-12-15 08:54:43 51°23.04 2°46.956 322.9 12.2 326 25
2010-12-15 08:54:49 51°23.057 2°46.939 323.7 12.3 327 24.7
2010-12-15 08:54:54 51°23.071 2°46.923 324.1 12.3 325 24.6
2010-12-15 08:54:59 51°23.085 2°46.908 323.8 12.3 326 24
2010-12-15 08:55:04 51°23.099 2°46.892 323.2 12.3 325 24.9
2010-12-15 08:55:09 51°23.113 2°46.877 322.9 12.5 325 25.7
2010-12-15 08:55:14 51°23.128 2°46.861 322.7 12.5 325 25.3
2010-12-15 08:55:19 51°23.142 2°46.845 322.7 12.4 325 25.8
2010-12-15 08:55:24 51°23.156 2°46.829 322.7 12.3 326 24.8
2010-12-15 08:55:29 51°23.169 2°46.813 323 12.2 323 25.1
2010-12-15 08:55:34 51°23.183 2°46.798 322.7 12.2 325 23.4
2010-12-15 08:55:39 51°23.196 2°46.781 321.3 12.2 322 22.6
2010-12-15 08:55:44 51°23.21 2°46.766 322.1 12.2 324 24.6
2010-12-15 08:55:49 51°23.224 2°46.749 321.2 12.2 321 24.8
2010-12-15 08:55:55 51°23.24 2°46.73 320.7 12.2 323 25.4
2010-12-15 08:55:59 51°23.251 2°46.717 320.9 12.2 324 25.3
2010-12-15 08:56:04 51°23.264 2°46.702 320.8 11.7 323 24
2010-12-15 08:56:10 51°23.277 2°46.682 318 11.1 318 24.5
2010-12-15 08:56:15 51°23.29 2°46.666 317.2 11.4 323 25.2
2010-12-15 08:56:19 51°23.3 2°46.652 317.8 11.8 320 26.7
2010-12-15 08:56:25 51°23.314 2°46.631 316.5 12 318 26.6
2010-12-15 08:56:29 51°23.324 2°46.616 314.9 12.2 318 25.9
2010-12-15 08:56:34 51°23.336 2°46.596 314.7 12.3 314 25.3
2010-12-15 08:56:39 51°23.348 2°46.576 312.4 12.3 314 24.8
2010-12-15 08:56:44 51°23.36 2°46.555 310.8 12.4 312 25.4
2010-12-15 08:56:49 51°23.37 2°46.534 309.3 12.4 309 26.5
2010-12-15 08:56:54 51°23.381 2°46.512 307.8 12.3 307 27.5
2010-12-15 08:56:59 51°23.391 2°46.49 306.6 12.3 308 27.7
2010-12-15 08:57:04 51°23.401 2°46.469 305.3 11.9 307 26.5
2010-12-15 08:57:09 51°23.409 2°46.447 304.2 11.9 304 26.6
2010-12-15 08:57:15 51°23.421 2°46.42 303.2 12 305 28
2010-12-15 08:57:19 51°23.429 2°46.403 303.5 11.9 305 28.5
2010-12-15 08:57:24 51°23.438 2°46.38 303.5 12 304 27.2
2010-12-15 08:57:29 51°23.447 2°46.359 302.3 11.9 306 26.3
2010-12-15 08:57:34 51°23.457 2°46.337 304.7 12.1 305 28.5
2010-12-15 08:57:39 51°23.466 2°46.314 302.4 11.9 303 28.3
2010-12-15 08:57:44 51°23.476 2°46.293 302.6 12.1 305 28.2
2010-12-15 08:57:49 51°23.485 2°46.27 302.4 12.3 303 28.4
2010-12-15 08:57:54 51°23.495 2°46.247 302 12.4 306 28.4
2010-12-15 08:57:59 51°23.505 2°46.224 303.1 12.4 304 28.6
2010-12-15 08:58:04 51°23.514 2°46.202 302.7 12.4 305 28.4
2010-12-15 08:58:09 51°23.524 2°46.179 303.4 12.6 305 28.3
2010-12-15 08:58:14 51°23.534 2°46.156 302.2 12.6 306 28.6
2010-12-15 08:58:19 51°23.545 2°46.133 303.9 12.6 308 27.8
2010-12-15 08:58:24 51°23.555 2°46.111 304.1 12.7 305 26.7
2010-12-15 08:58:29 51°23.565 2°46.088 304.9 12.6 306 26.9
2010-12-15 08:58:34 51°23.575 2°46.066 304.3 12.4 306 27.3
2010-12-15 08:58:39 51°23.585 2°46.043 304.1 12.6 306 27.4
2010-12-15 08:58:44 51°23.595 2°46.021 304.9 12.6 306 27.9
2010-12-15 08:58:49 51°23.606 2°45.999 304.9 12.4 307 27.9
2010-12-15 08:58:54 51°23.615 2°45.976 303.9 12.2 305 28.3
2010-12-15 08:58:59 51°23.626 2°45.954 304.6 12.3 308 28.6
2010-12-15 08:59:04 51°23.636 2°45.932 305.5 12.3 304 30.1
2010-12-15 08:59:09 51°23.646 2°45.91 305.1 12.3 307 29.6
2010-12-15 08:59:15 51°23.658 2°45.884 306.1 12.1 305 28.7
2010-12-15 08:59:19 51°23.665 2°45.866 304.9 12.2 305 28.8
2010-12-15 08:59:24 51°23.676 2°45.845 305.4 12.4 308 29.9
2010-12-15 08:59:29 51°23.685 2°45.822 304.9 12.4 304 29
2010-12-15 08:59:35 51°23.698 2°45.796 304.5 12.4 308 29.4
2010-12-15 08:59:39 51°23.706 2°45.778 305.5 12.4 307 28.8
2010-12-15 08:59:44 51°23.716 2°45.756 304.5 12.6 306 29.4
2010-12-15 08:59:49 51°23.726 2°45.733 305 12.3 303 28.2
2010-12-15 08:59:54 51°23.735 2°45.711 303.2 12.3 305 28.2
2010-12-15 08:59:59 51°23.745 2°45.688 303.8 12.3 305 28.6
2010-12-15 09:00:04 51°23.755 2°45.666 304.6 12.5 305 28.7
2010-12-15 09:00:09 51°23.766 2°45.644 305.3 12.6 307 28.6
2010-12-15 09:00:14 51°23.776 2°45.621 304 12.7 305 28.8
2010-12-15 09:00:19 51°23.786 2°45.599 304.9 12.7 306 28.2
2010-12-15 09:00:24 51°23.797 2°45.577 305.2 12.4 306 29.8
2010-12-15 09:00:29 51°23.807 2°45.555 304.6 12.5 307 28.9
2010-12-15 09:00:34 51°23.818 2°45.533 305.7 12.6 308 29.1
2010-12-15 09:00:39 51°23.828 2°45.511 305.7 12.4 307 28.6
2010-12-15 09:00:44 51°23.839 2°45.491 306.7 12.4 312 28.6
2010-12-15 09:00:49 51°23.851 2°45.471 310 12.4 313 28.2
2010-12-15 09:00:54 51°23.862 2°45.449 309.2 12.6 311 29.2
2010-12-15 09:00:59 51°23.874 2°45.43 311.6 12.4 316 28.3
2010-12-15 09:01:04 51°23.885 2°45.409 312.6 12.3 309 29.6
2010-12-15 09:01:09 51°23.897 2°45.389 310.7 12.2 313 28.3
2010-12-15 09:01:14 51°23.909 2°45.372 313.7 12.1 317 28.6
2010-12-15 09:01:19 51°23.921 2°45.352 314.4 12.2 314 29
2010-12-15 09:01:24 51°23.933 2°45.334 314.2 12.2 317 28.9
2010-12-15 09:01:29 51°23.945 2°45.314 315.1 12.4 314 27.7
2010-12-15 09:01:35 51°23.961 2°45.293 315.4 12.4 318 27.8
2010-12-15 09:01:39 51°23.971 2°45.277 315.9 12.5 316 27.3
2010-12-15 09:01:43 51°23.981 2°45.262 315.1 12.4 318 27.6
2010-12-15 09:01:49 51°23.996 2°45.24 315.8 12.6 317 28.7
2010-12-15 09:01:54 51°24.01 2°45.222 317 12.7 319 28.5
2010-12-15 09:01:59 51°24.022 2°45.203 316.6 12.5 316 27.1
2010-12-15 09:02:04 51°24.035 2°45.186 316.1 12.3 319 27.1
2010-12-15 09:02:09 51°24.048 2°45.168 316.4 12.4 320 28.4
2010-12-15 09:02:14 51°24.061 2°45.149 317.3 12.5 319 27.5
2010-12-15 09:02:19 51°24.073 2°45.129 315.4 12.7 314 27.8
2010-12-15 09:02:24 51°24.087 2°45.112 317.2 12.7 321 28.2
2010-12-15 09:02:29 51°24.099 2°45.092 316.6 12.5 315 27.4
2010-12-15 09:02:34 51°24.112 2°45.075 315.9 12.5 320 28.4
2010-12-15 09:02:39 51°24.125 2°45.055 316 12.5 316 28.6
2010-12-15 09:02:44 51°24.137 2°45.036 315.6 12.5 317 28
2010-12-15 09:02:49 51°24.15 2°45.017 315.7 12.6 317 28.1
2010-12-15 09:02:54 51°24.163 2°44.999 316 12.7 318 28.6
2010-12-15 09:02:59 51°24.176 2°44.979 316.5 12.6 315 28.4
2010-12-15 09:03:03 51°24.186 2°44.964 316.9 12.6 318 28.1
2010-12-15 09:03:09 51°24.201 2°44.94 315.4 12.3 314 26.8
2010-12-15 09:03:14 51°24.214 2°44.923 315.7 12.2 318 27.8
2010-12-15 09:03:19 51°24.226 2°44.903 314.1 12.2 315 27.3
2010-12-15 09:03:24 51°24.238 2°44.886 315.6 11.9 319 28.1
2010-12-15 09:03:29 51°24.249 2°44.87 316.1 10.9 316 28.3
2010-12-15 09:03:34 51°24.26 2°44.854 315.8 10.4 316 28.2
2010-12-15 09:03:39 51°24.27 2°44.84 315.9 9.9 318 27.6
2010-12-15 09:03:43 51°24.278 2°44.828 315.7 9.6 317 27.5
2010-12-15 09:03:49 51°24.289 2°44.812 315.8 9.3 319 27.9
2010-12-15 09:03:54 51°24.299 2°44.799 316.1 9 319 28.3
2010-12-15 09:03:59 51°24.308 2°44.787 316.2 8.7 320 27.9
2010-12-15 09:04:04 51°24.317 2°44.774 316.7 8.6 318 27.6
2010-12-15 09:04:09 51°24.326 2°44.762 316.1 8.5 318 28
2010-12-15 09:04:14 51°24.334 2°44.75 316.2 8.4 317 29.1
2010-12-15 09:04:19 51°24.343 2°44.738 316.6 8.2 321 28.1
2010-12-15 09:04:24 51°24.351 2°44.727 316.2 7.7 321 28.2
2010-12-15 09:04:29 51°24.359 2°44.716 315.6 7.6 319 28.1
2010-12-15 09:04:34 51°24.367 2°44.704 315.8 7.5 317 28.2
2010-12-15 09:04:39 51°24.374 2°44.694 315.8 7.2 321 4.8
2010-12-15 09:04:44 51°24.382 2°44.684 315.3 7.2 319 27.8
2010-12-15 09:04:49 51°24.39 2°44.673 315.8 7.3 321 26.7
2010-12-15 09:04:54 51°24.397 2°44.662 315.7 7 316 27.2
2010-12-15 09:04:59 51°24.403 2°44.653 314.1 6.6 319 27.6
2010-12-15 09:05:04 51°24.409 2°44.643 311.8 5.7 315 28.5
2010-12-15 09:05:09 51°24.414 2°44.635 310.2 5.4 317 27.1
2010-12-15 09:05:14 51°24.418 2°44.627 308.6 4.9 309 27.1
2010-12-15 09:05:19 51°24.422 2°44.62 306.8 4.3 309 27.5
2010-12-15 09:05:24 51°24.425 2°44.614 303.5 3.7 308 28.3
2010-12-15 09:05:29 51°24.428 2°44.609 301.6 3.3 311 28.2
2010-12-15 09:05:34 51°24.43 2°44.604 299.8 2.8 305 28.1
2010-12-15 09:05:39 51°24.432 2°44.599 298.5 2.6 304 28.2
2010-12-15 09:05:43 51°24.433 2°44.595 298 2.5 300 27.8
2010-12-15 09:05:49 51°24.435 2°44.589 297.1 2.4 299 28
2010-12-15 09:05:54 51°24.437 2°44.585 295.8 2.4 299 28.3
2010-12-15 09:05:59 51°24.439 2°44.58 294.1 2.5 297 28.5
2010-12-15 09:06:04 51°24.44 2°44.574 292.8 2.9 290 28.8
2010-12-15 09:06:09 51°24.442 2°44.567 291.9 3.2 292 28.8
2010-12-15 09:06:15 51°24.445 2°44.558 291 3.6 298 28.9
2010-12-15 09:06:19 51°24.446 2°44.552 290.6 4 294 28.7
2010-12-15 09:06:24 51°24.449 2°44.543 291.5 4.2 296 28.6
2010-12-15 09:06:29 51°24.452 2°44.534 292.9 4.5 295 29.4
2010-12-15 09:06:34 51°24.455 2°44.525 294.9 4.6 295 30
2010-12-15 09:06:39 51°24.458 2°44.516 295.6 4.8 302 28.7
2010-12-15 09:06:44 51°24.461 2°44.504 293.2 5.3 294 28
2010-12-15 09:06:49 51°24.463 2°44.493 290 5.6 289 28.1
2010-12-15 09:06:54 51°24.465 2°44.481 285.7 5.6 284 28.6
2010-12-15 09:06:59 51°24.467 2°44.469 281.3 5.9 280 27.6
2010-12-15 09:07:04 51°24.468 2°44.456 280.1 6 283 26.7
2010-12-15 09:07:09 51°24.469 2°44.442 279 6.4 278 26.5
2010-12-15 09:07:14 51°24.471 2°44.428 278.2 6.7 281 26.8
2010-12-15 09:07:19 51°24.474 2°44.413 279.6 6.9 287 27
2010-12-15 09:07:24 51°24.477 2°44.399 283.3 6.9 289 27
2010-12-15 09:07:29 51°24.482 2°44.385 290.8 7 298 28.5
2010-12-15 09:07:34 51°24.487 2°44.371 295.4 7 301 27.1
2010-12-15 09:07:39 51°24.492 2°44.358 297.3 7.2 299 27.4
2010-12-15 09:07:44 51°24.497 2°44.344 299.1 7.2 302 27.7
2010-12-15 09:07:49 51°24.501 2°44.33 297.3 7.1 296 27.7
2010-12-15 09:07:54 51°24.505 2°44.315 293.1 7.4 292 27.2
2010-12-15 09:07:59 51°24.509 2°44.3 288.7 7.4 291 26.8
2010-12-15 09:08:03 51°24.512 2°44.288 286.8 7.4 290 25.5
2010-12-15 09:08:09 51°24.516 2°44.269 286 7.5 288 26.5
2010-12-15 09:08:14 51°24.519 2°44.253 285.9 7.6 289 26.1
2010-12-15 09:08:19 51°24.522 2°44.237 286.8 7.7 290 24.5
2010-12-15 09:08:24 51°24.526 2°44.221 287.1 7.7 290 21.5
2010-12-15 09:08:29 51°24.53 2°44.205 287 7.9 290 19.4
2010-12-15 09:08:34 51°24.534 2°44.188 287.9 7.9 292 21.2
2010-12-15 09:08:39 51°24.538 2°44.173 289 7.8 291 23.4
2010-12-15 09:08:43 51°24.541 2°44.16 289.4 7.5 290 24.8
2010-12-15 09:08:49 51°24.545 2°44.141 287.3 7.6 291 24.4
2010-12-15 09:08:54 51°24.549 2°44.124 285.6 7.7 291 24.6
2010-12-15 09:08:59 51°24.552 2°44.107 285.1 7.8 289 24.7
2010-12-15 09:09:04 51°24.555 2°44.09 286.4 8 287 25.7
2010-12-15 09:09:09 51°24.56 2°44.075 288.2 7.9 294 26
2010-12-15 09:09:14 51°24.563 2°44.058 288.5 7.9 288 26.4
2010-12-15 09:09:19 51°24.566 2°44.041 286.4 8 289 27.1
2010-12-15 09:09:24 51°24.57 2°44.024 284.9 8 288 26.8
2010-12-15 09:09:29 51°24.573 2°44.007 284.5 7.8 288 27
2010-12-15 09:09:34 51°24.577 2°43.991 284.4 7.6 289 26.8
2010-12-15 09:09:39 51°24.58 2°43.975 284.8 7.5 287 26.8
2010-12-15 09:09:44 51°24.584 2°43.96 286.5 7.4 289 27.3
2010-12-15 09:09:49 51°24.587 2°43.947 288.2 6.7 293 26.2
2010-12-15 09:09:54 51°24.591 2°43.934 289.4 6.2 293 27.3
2010-12-15 09:09:59 51°24.594 2°43.923 292.2 5.7 296 27.2
2010-12-15 09:10:04 51°24.598 2°43.913 293.6 5.2 301 26.4
2010-12-15 09:10:09 51°24.601 2°43.904 294.7 4.7 302 26.2
2010-12-15 09:10:14 51°24.605 2°43.897 295.8 4.1 307 25.7
2010-12-15 09:10:19 51°24.607 2°43.89 297.2 3.9 299 24.8
2010-12-15 09:10:24 51°24.609 2°43.884 297 3.5 300 25.1
2010-12-15 09:10:29 51°24.612 2°43.879 298.1 3 306 26.4
2010-12-15 09:10:34 51°24.615 2°43.875 300.2 2.7 315 26.6
2010-12-15 09:10:39 51°24.617 2°43.871 301.4 2.4 314 26.1
2010-12-15 09:10:44 51°24.619 2°43.866 301.6 2.3 310 25.6
2010-12-15 09:10:49 51°24.621 2°43.862 300.6 2.5 313 25.2
2010-12-15 09:10:54 51°24.623 2°43.859 299 2 306 25.3
2010-12-15 09:10:59 51°24.624 2°43.855 296.1 1.9 299 25.2
2010-12-15 09:11:04 51°24.625 2°43.851 291 1.7 301 25.5
2010-12-15 09:11:09 51°24.626 2°43.847 285.9 1.7 298 24.4
2010-12-15 09:11:14 51°24.626 2°43.844 282.5 1.6 274 24.9
2010-12-15 09:11:19 51°24.626 2°43.841 278.1 1.2 268 25
2010-12-15 09:11:24 51°24.626 2°43.838 276.5 1.3 280 23.8
2010-12-15 09:11:29 51°24.626 2°43.836 272.5 1.2 261 24
2010-12-15 09:11:34 51°24.626 2°43.833 271.7 1.4 264 24.1
2010-12-15 09:11:39 51°24.627 2°43.83 272.6 1.2 272 23.7
2010-12-15 09:11:44 51°24.627 2°43.827 275.3 1.4 284 22.8
2010-12-15 09:11:49 51°24.627 2°43.824 277.5 1.6 286 21.9
2010-12-15 09:11:54 51°24.628 2°43.819 280.2 1.7 283 22.2
2010-12-15 09:11:59 51°24.629 2°43.816 284.5 1.8 296 22.6
2010-12-15 09:12:04 51°24.629 2°43.812 288.2 1.8 281 22.1
2010-12-15 09:12:09 51°24.63 2°43.809 291.4 1.7 287 23.1
2010-12-15 09:12:14 51°24.631 2°43.806 293.4 1.8 292 23
2010-12-15 09:12:19 51°24.633 2°43.803 296.8 1.6 311 24.4
2010-12-15 09:12:24 51°24.634 2°43.8 300.4 1.7 309 24.4
2010-12-15 09:12:29 51°24.636 2°43.797 305.8 2.1 322 24.3
2010-12-15 09:12:34 51°24.639 2°43.794 309.6 2.3 322 24.1
2010-12-15 09:12:39 51°24.642 2°43.79 310.7 2.6 321 23.6
2010-12-15 09:12:44 51°24.644 2°43.785 312.8 2.7 311 23.9
2010-12-15 09:12:49 51°24.647 2°43.782 314.1 2.6 324 24.9
2010-12-15 09:12:54 51°24.65 2°43.779 314.7 2.4 321 25.4
2010-12-15 09:12:59 51°24.652 2°43.776 314.4 2.3 328 24.5
2010-12-15 09:13:04 51°24.655 2°43.772 313.7 2.2 321 24.7
2010-12-15 09:13:09 51°24.657 2°43.769 312.6 2.4 325 24.6
2010-12-15 09:13:15 51°24.66 2°43.765 310.1 2.4 321 23.7
2010-12-15 09:13:19 51°24.662 2°43.761 307.3 2.4 304 23.8
2010-12-15 09:13:24 51°24.664 2°43.758 305.2 2.3 311 25
2010-12-15 09:13:29 51°24.666 2°43.755 302.7 2.3 310 25.4
2010-12-15 09:13:34 51°24.668 2°43.751 301.4 2.4 310 25.2
2010-12-15 09:13:39 51°24.67 2°43.747 300.2 2.3 312 24.9
2010-12-15 09:13:44 51°24.671 2°43.743 299.8 1.8 305 24
2010-12-15 09:13:49 51°24.672 2°43.74 298.8 1.6 307 24.3
2010-12-15 09:13:54 51°24.673 2°43.738 297.2 1.3 299 25.4
2010-12-15 09:13:59 51°24.674 2°43.737 296.8 0.7 321 25
2010-12-15 09:14:04 51°24.674 2°43.737 296.3 0.5 341 24.8
2010-12-15 09:14:09 51°24.674 2°43.736 295.7 0.1 243 24.9
2010-12-15 09:14:14 51°24.674 2°43.736 294.9 0.2 9 24.6
2010-12-15 09:14:19 51°24.674 2°43.736 294.5 -999 226 24
2010-12-15 09:14:24 51°24.674 2°43.736 293.5 0.4 204 24.3
2010-12-15 09:14:29 51°24.674 2°43.736 292.6 0.1 302 24.9
2010-12-15 09:14:34 51°24.674 2°43.735 291.4 0.4 317 23.9
2010-12-15 09:14:39 51°24.674 2°43.733 289.5 0.9 258 23.9
2010-12-15 09:14:43 51°24.674 2°43.732 287.5 0.9 274 24.4
2010-12-15 09:14:49 51°24.674 2°43.73 286.6 0.8 281 22.9
2010-12-15 09:14:54 51°24.674 2°43.729 285.5 0.5 255 23.2
2010-12-15 09:14:59 51°24.674 2°43.729 285.1 0.2 191 23.1
2010-12-15 09:15:04 51°24.674 2°43.729 285.2 0.1 89 22.4
2010-12-15 09:15:09 51°24.673 2°43.729 284.3 0.4 166 22.6
2010-12-15 09:15:14 51°24.673 2°43.729 282.2 0.3 151 23.3
2010-12-15 09:15:19 51°24.672 2°43.73 280.8 0.5 166 23.4
2010-12-15 09:15:24 51°24.671 2°43.73 279.2 0.8 175 24.6
2010-12-15 09:15:29 51°24.671 2°43.73 277.3 0.6 164 25
2010-12-15 09:15:34 51°24.671 2°43.731 276.6 0.4 106 24.9
2010-12-15 09:15:39 51°24.67 2°43.732 275.2 0.7 143 25.5
2010-12-15 09:15:44 51°24.669 2°43.733 273.4 0.6 137 25.6
2010-12-15 09:15:49 51°24.668 2°43.734 272 0.8 150 25.9
2010-12-15 09:15:54 51°24.668 2°43.735 270.4 0.5 107 25.7
2010-12-15 09:15:59 51°24.667 2°43.737 268.4 1.1 127 25.9
2010-12-15 09:16:04 51°24.667 2°43.738 266.2 0.8 99 25.5
2010-12-15 09:16:09 51°24.666 2°43.74 263.3 0.9 112 24.7
2010-12-15 09:16:14 51°24.665 2°43.742 260.1 1.3 129 25.7
2010-12-15 09:16:19 51°24.665 2°43.744 258.9 0.8 106 25.7